^^
Station Historical Data
Daily Summary for January 11, 2018 Units:  English    Metric   Both
« Previous Day
Next Day »
Daily Weekly Monthly Yearly Custom
  High: Low: Average:
Temperature: TemperatureF °F 74.3 °F 78.4 °F
Dew Point: DewpointF °F 42.1 °F 45.4 °F
Humidity: Humidity% 23% 31%
Wind Speed: WindSpeedMPHmph -999.9mph -16.9mph
Wind Gust: WindSpeedGustMPHmph - -
Wind- -
Pressure: PressureIn in 29.57 in -
Precipitation: 0.00 in    
Historical Graphs
 
 
Tabular Data for January 11, 2018
Time Temperature Dew Point Pressure Wind Wind Speed Wind Gust Humidity Rainfall Rate (Hourly) solar Conditions
TemperatureF °F DewpointF °F PressureIn in Calm     Humidity% HourlyPrecipIn in SoftwareType W/m2 Conditions
09:03 74.3 °F 48.4 °F 29.61 in North -999.9 mph -999.0 mph 40% 0.00 in meteobridge W/m2
09:10 75.0 °F 48.4 °F 29.61 in NNE 10.1 mph 14.0 mph 39% 0.00 in meteobridge W/m2
09:18 75.0 °F 49.1 °F 29.61 in East 4.9 mph 9.0 mph 40% 0.00 in meteobridge W/m2
09:24 75.7 °F 49.6 °F 29.61 in ENE 2.9 mph 6.0 mph 40% 0.00 in meteobridge W/m2
09:30 76.1 °F 49.3 °F 29.61 in East 4.9 mph 13.0 mph 39% 0.00 in meteobridge W/m2
09:42 77.4 °F 50.5 °F 29.61 in NE 8.9 mph 13.0 mph 39% 0.00 in meteobridge W/m2
09:49 78.4 °F 50.0 °F 29.61 in North 11.0 mph 11.0 mph 37% 0.00 in meteobridge W/m2
09:55 78.1 °F 49.6 °F 29.61 in NE 10.1 mph 14.0 mph 37% 0.00 in meteobridge W/m2
10:01 78.3 °F 49.8 °F 29.61 in NNE 16.1 mph 18.0 mph 37% 0.00 in meteobridge W/m2
10:07 77.9 °F 50.2 °F 29.60 in NNE 15.0 mph 18.0 mph 38% 0.00 in meteobridge W/m2
10:13 78.1 °F 49.6 °F 29.61 in NNE 11.0 mph 18.0 mph 37% 0.00 in meteobridge W/m2
10:19 78.4 °F 50.0 °F 29.60 in NNE 13.0 mph 18.0 mph 37% 0.00 in meteobridge W/m2
10:25 78.6 °F 50.2 °F 29.60 in NNE 10.1 mph 12.0 mph 37% 0.00 in meteobridge W/m2
10:35 79.7 °F 49.6 °F 29.60 in NE 4.9 mph 16.0 mph 35% 0.00 in meteobridge W/m2
10:41 79.9 °F 50.5 °F 29.60 in North 17.9 mph 18.0 mph 36% 0.00 in meteobridge W/m2
10:47 79.5 °F 48.7 °F 29.60 in ENE 12.1 mph 22.0 mph 34% 0.00 in meteobridge W/m2
10:53 80.6 °F 50.4 °F 29.61 in ENE 6.0 mph 10.0 mph 35% 0.00 in meteobridge W/m2
10:59 81.3 °F 48.6 °F 29.60 in ENE 8.1 mph 13.0 mph 32% 0.00 in meteobridge W/m2
11:05 81.1 °F 45.9 °F 29.60 in North 17.0 mph 25.0 mph 29% 0.00 in meteobridge W/m2
11:11 81.3 °F 47.8 °F 29.60 in NNE 13.0 mph 21.0 mph 31% 0.00 in meteobridge W/m2
11:19 82.0 °F 49.3 °F 29.60 in NNE 16.1 mph 16.1 mph 32% 0.00 in meteobridge W/m2
11:27 83.7 °F 49.8 °F 29.60 in NE 4.9 mph 7.0 mph 31% 0.00 in meteobridge W/m2
11:34 84.0 °F 48.4 °F 29.60 in North 15.0 mph 15.0 mph 29% 0.00 in meteobridge W/m2
11:46 82.9 °F 46.4 °F 29.59 in NNE 10.1 mph 15.0 mph 28% 0.00 in meteobridge W/m2
11:52 83.1 °F 47.7 °F 29.60 in ENE 6.0 mph 11.0 mph 29% 0.00 in meteobridge W/m2
12:10 84.9 °F 47.1 °F 29.59 in NE 6.0 mph 14.0 mph 27% 0.00 in meteobridge W/m2
12:17 84.4 °F 46.8 °F 29.59 in NE 8.9 mph 10.0 mph 27% 0.00 in meteobridge W/m2
12:23 84.7 °F 47.1 °F 29.59 in ENE 6.0 mph 18.0 mph 27% 0.00 in meteobridge W/m2
12:31 84.9 °F 46.2 °F 29.59 in NE 15.0 mph 21.0 mph 26% 0.00 in meteobridge W/m2
12:37 85.6 °F 43.5 °F 29.59 in NNE 14.1 mph 20.0 mph 23% 0.00 in meteobridge W/m2
12:57 84.4 °F 44.8 °F 29.59 in NE 4.0 mph 11.0 mph 25% 0.00 in meteobridge W/m2
13:03 83.1 °F 43.7 °F 29.59 in SSW 0.9 mph 10.0 mph 25% 0.00 in meteobridge W/m2
13:09 82.2 °F 43.9 °F 29.59 in NNE 19.0 mph 19.0 mph 26% 0.00 in meteobridge W/m2
13:16 81.9 °F 43.7 °F 29.59 in East 8.1 mph 10.0 mph 26% 0.00 in meteobridge W/m2
13:26 81.1 °F 43.0 °F 29.58 in North 4.9 mph 8.0 mph 26% 0.00 in meteobridge W/m2
13:32 81.5 °F 43.3 °F 29.58 in NNE 4.0 mph 12.0 mph 26% 0.00 in meteobridge W/m2
13:38 81.7 °F 43.5 °F 29.58 in ENE 6.0 mph 8.0 mph 26% 0.00 in meteobridge W/m2
13:47 81.9 °F 44.6 °F 29.58 in South 4.0 mph 7.0 mph 27% 0.00 in meteobridge W/m2
13:53 79.9 °F 48.2 °F 29.59 in SSW 13.0 mph 14.0 mph 33% 0.00 in meteobridge W/m2
13:59 77.0 °F 48.0 °F 29.58 in South 10.1 mph 10.1 mph 36% 0.00 in meteobridge W/m2
14:05 76.3 °F 48.0 °F 29.58 in South 8.9 mph 12.0 mph 37% 0.00 in meteobridge W/m2
14:11 76.1 °F 48.6 °F 29.59 in SSE 15.0 mph 15.0 mph 38% 0.00 in meteobridge W/m2
14:17 76.5 °F 46.0 °F 29.59 in SSE 10.1 mph 12.0 mph 34% 0.00 in meteobridge W/m2
14:23 77.2 °F 45.9 °F 29.59 in South 4.9 mph 12.0 mph 33% 0.00 in meteobridge W/m2
14:29 77.4 °F 45.1 °F 29.58 in South 4.9 mph 11.0 mph 32% 0.00 in meteobridge W/m2
14:40 77.9 °F 44.8 °F 29.58 in SSE 13.0 mph 15.0 mph 31% 0.00 in meteobridge W/m2
14:46 78.1 °F 45.9 °F 29.58 in South 8.9 mph 11.0 mph 32% 0.00 in meteobridge W/m2
14:52 78.4 °F 46.2 °F 29.58 in SSE 11.0 mph 11.0 mph 32% 0.00 in meteobridge W/m2
14:58 78.6 °F 46.2 °F 29.58 in South 8.1 mph 9.0 mph 32% 0.00 in meteobridge W/m2
15:04 79.0 °F 47.5 °F 29.57 in South 4.9 mph 7.0 mph 33% 0.00 in meteobridge W/m2
15:21 78.3 °F 46.8 °F 29.58 in SW 8.9 mph 9.0 mph 33% 0.00 in meteobridge W/m2
15:27 77.5 °F 46.9 °F 29.57 in South 2.9 mph 10.0 mph 34% 0.00 in meteobridge W/m2
15:33 77.7 °F 46.4 °F 29.57 in South 6.9 mph 13.0 mph 33% 0.00 in meteobridge W/m2
15:39 78.3 °F 45.1 °F 29.58 in South 14.1 mph 19.0 mph 31% 0.00 in meteobridge W/m2
15:51 78.6 °F 44.6 °F 29.58 in SSW 2.9 mph 11.0 mph 30% 0.00 in meteobridge W/m2
15:57 79.2 °F 44.2 °F 29.59 in SW 4.0 mph 15.0 mph 29% 0.00 in meteobridge W/m2
16:03 79.3 °F 44.2 °F 29.59 in SSE 14.1 mph 19.0 mph 29% 0.00 in meteobridge W/m2
16:09 79.2 °F 44.2 °F 29.59 in South 8.9 mph 19.0 mph 29% 0.00 in meteobridge W/m2
16:16 78.6 °F 43.7 °F 29.59 in SSW 2.9 mph 12.0 mph 29% 0.00 in meteobridge W/m2
16:22 78.6 °F 43.7 °F 29.59 in SSE 4.0 mph 6.0 mph 29% 0.00 in meteobridge W/m2
16:30 79.2 °F 44.2 °F 29.58 in SSW 2.9 mph 9.0 mph 29% 0.00 in meteobridge W/m2
16:36 79.2 °F 44.2 °F 29.58 in South 4.0 mph 10.0 mph 29% 0.00 in meteobridge W/m2
16:42 79.2 °F 44.2 °F 29.58 in South 4.0 mph 7.0 mph 29% 0.00 in meteobridge W/m2
16:48 79.0 °F 44.1 °F 29.59 in SSW 2.9 mph 10.0 mph 29% 0.00 in meteobridge W/m2
16:54 78.8 °F 43.9 °F 29.59 in SSE 8.9 mph 9.0 mph 29% 0.00 in meteobridge W/m2
17:00 79.2 °F 43.2 °F 29.59 in SSW 4.0 mph 10.0 mph 28% 0.00 in meteobridge W/m2
17:06 78.6 °F 43.7 °F 29.59 in SSE 10.1 mph 13.0 mph 29% 0.00 in meteobridge W/m2
17:12 78.4 °F 43.5 °F 29.58 in ESE 2.0 mph 9.0 mph 29% 0.00 in meteobridge W/m2
17:18 79.2 °F 44.2 °F 29.58 in ESE 4.0 mph 6.0 mph 29% 0.00 in meteobridge W/m2
17:24 79.3 °F 43.3 °F 29.57 in South 8.9 mph 12.0 mph 28% 0.00 in meteobridge W/m2
17:31 79.0 °F 42.1 °F 29.58 in SE 2.9 mph 8.0 mph 27% 0.00 in meteobridge W/m2
17:37 78.6 °F 42.8 °F 29.58 in South 2.9 mph 11.0 mph 28% 0.00 in meteobridge W/m2
17:43 78.3 °F 42.4 °F 29.59 in Calm   6.0 mph 28% 0.00 in meteobridge W/m2
17:49 78.3 °F 42.4 °F 29.59 in Calm   1.0 mph 28% 0.00 in meteobridge W/m2
17:55 78.6 °F 42.8 °F 29.59 in South 0.9 mph 3.0 mph 28% 0.00 in meteobridge W/m2
18:01 78.8 °F 42.1 °F 29.59 in Calm   1.0 mph 27% 0.00 in meteobridge W/m2
18:13 78.3 °F 42.4 °F 29.59 in South 4.0 mph 4.0 mph 28% 0.00 in meteobridge W/m2
18:19 78.1 °F 42.3 °F 29.60 in Calm   3.0 mph 28% 0.00 in meteobridge W/m2
18:36 78.1 °F 42.3 °F 29.61 in SSW 2.0 mph 3.0 mph 28% 0.00 in meteobridge W/m2
18:49 77.9 °F 42.3 °F 29.62 in Calm     28% 0.00 in meteobridge W/m2
18:55 77.9 °F 42.3 °F 29.62 in Calm   -999.0 mph 28% 0.00 in meteobridge W/m2
19:01 77.9 °F 42.3 °F 29.62 in North -999.9 mph -999.0 mph 28% 0.00 in meteobridge W/m2
Regenstein, Windhoek, Namibia
Compliments of Weather Underground - 2.5 mb